Conklin, Michigan
Current Conditions -  °F | °C
As of 3:55 PM on Tuesday 27 Jan 2015 (Local Time) from KMKG Reporting Station
Clear Clear  
Wind Chill: 19°   Ceiling: Unl
Heat Index: 28°   Visibility: 10mi
Dew Point: 13°   Wind: 10mph
Humidity: 53%   Direction: 280°W
Pressure: 30.21"   Gusts: NA
Location:  43.13°N, 85.88°W
Report Text: KMKG 272055Z 28009KT 10SM CLR M02/M11 A3021 RMK AO2 SLP238 T10221106 53007
Loading
Personal Weather Stations






























Interactive Weather Map New forecast layout! Learn more

10-Day Weather Forecast

Advertisements
Track Severe Weather on mobile